Time;durP1;ratioP1;P1;durP2;ratioP2;P2;SDS_P1;SDS_P2;PMS_P1;PMS_P2;Temp;Humidity;BMP_temperature;BMP_pressure;BME280_temperature;BME280_humidity;BME280_pressure;Samples;Min_cycle;Max_cycle;Signal;HPM_P1;HPM_P2
2023/03/13 00:01:34;;;;;;;10.68;2.35;;;;;;;;;;5097666;28;20202;-78
2023/03/13 00:04:00;;;;;;;16.20;2.60;;;;;;;;;;5098261;28;20195;-78
2023/03/13 00:06:30;;;;;;;17.90;3.25;;;;;;;;;;5098566;28;20203;-80
2023/03/13 00:08:57;;;;;;;9.30;2.35;;;;;;;;;;5098082;28;20656;-77
2023/03/13 00:11:23;;;;;;;13.25;2.92;;;;;;;;;;5098925;28;20227;-78
2023/03/13 00:13:53;;;;;;;9.73;2.70;;;;;;;;;;5097449;28;20172;-78
2023/03/13 00:16:19;;;;;;;14.20;3.80;;;;;;;;;;5097597;28;20172;-77
2023/03/13 00:18:46;;;;;;;13.43;3.63;;;;;;;;;;5098134;28;20179;-77
2023/03/13 00:21:12;;;;;;;12.93;3.90;;;;;;;;;;5098801;28;20394;-77
2023/03/13 00:23:38;;;;;;;8.07;3.25;;;;;;;;;;5098626;28;20187;-82
2023/03/13 00:26:08;;;;;;;12.13;2.75;;;;;;;;;;5098425;28;20176;-77
2023/03/13 00:28:35;;;;;;;15.15;3.05;;;;;;;;;;5098472;28;20245;-78
2023/03/13 00:31:04;;;;;;;8.48;3.00;;;;;;;;;;5097855;28;20636;-77
2023/03/13 00:33:37;;;;;;;10.15;3.03;;;;;;;;;;5098621;28;20278;-77
2023/03/13 00:36:05;;;;;;;15.25;3.30;;;;;;;;;;5098504;28;20184;-77
2023/03/13 00:38:32;;;;;;;12.35;3.55;;;;;;;;;;5098344;28;20555;-77
2023/03/13 00:41:02;;;;;;;9.07;3.17;;;;;;;;;;5098195;28;20519;-77
2023/03/13 00:43:28;;;;;;;11.93;3.33;;;;;;;;;;5097736;28;20524;-77
2023/03/13 00:45:54;;;;;;;13.57;3.53;;;;;;;;;;5098212;28;20183;-77
2023/03/13 00:48:20;;;;;;;13.13;3.65;;;;;;;;;;5098199;28;20196;-77
2023/03/13 00:50:46;;;;;;;18.40;3.05;;;;;;;;;;5098140;28;20575;-77
2023/03/13 00:53:12;;;;;;;9.15;2.40;;;;;;;;;;5098268;28;20275;-77
2023/03/13 00:55:38;;;;;;;20.48;3.33;;;;;;;;;;5080357;28;20172;-77
2023/03/13 00:58:04;;;;;;;10.70;3.45;;;;;;;;;;5097938;28;20180;-77
2023/03/13 01:00:31;;;;;;;18.35;3.90;;;;;;;;;;5097496;28;20213;-77
2023/03/13 01:02:57;;;;;;;11.43;2.70;;;;;;;;;;5097391;28;20177;-77
2023/03/13 01:05:23;;;;;;;7.65;2.40;;;;;;;;;;5097340;28;20224;-77
2023/03/13 01:07:49;;;;;;;10.87;2.80;;;;;;;;;;5097476;28;20196;-76
2023/03/13 01:10:16;;;;;;;9.10;2.50;;;;;;;;;;5098027;28;20916;-77
2023/03/13 01:12:42;;;;;;;13.40;2.50;;;;;;;;;;5097783;28;20183;-77
2023/03/13 01:15:09;;;;;;;9.27;2.47;;;;;;;;;;5097579;28;20515;-77
2023/03/13 01:17:35;;;;;;;8.50;2.35;;;;;;;;;;5063472;28;20191;-77
2023/03/13 01:20:01;;;;;;;13.13;2.63;;;;;;;;;;5097303;28;20176;-77
2023/03/13 01:22:27;;;;;;;5.55;2.42;;;;;;;;;;5097692;28;20176;-77
2023/03/13 01:24:53;;;;;;;9.70;2.90;;;;;;;;;;5096888;28;20195;-77
2023/03/13 01:27:19;;;;;;;5.82;2.70;;;;;;;;;;5096596;28;20207;-77
2023/03/13 01:29:45;;;;;;;11.52;2.63;;;;;;;;;;5097400;28;20254;-77
2023/03/13 01:32:11;;;;;;;8.27;2.60;;;;;;;;;;5097668;28;20200;-77
2023/03/13 01:34:39;;;;;;;9.68;2.75;;;;;;;;;;5097255;28;20441;-76
2023/03/13 01:37:05;;;;;;;11.70;2.40;;;;;;;;;;5096938;28;20229;-76
2023/03/13 01:39:31;;;;;;;9.82;2.13;;;;;;;;;;5097552;28;20203;-77
2023/03/13 01:41:57;;;;;;;7.80;2.25;;;;;;;;;;5097075;28;20188;-76
2023/03/13 01:44:24;;;;;;;4.25;1.83;;;;;;;;;;5097324;28;20502;-77
2023/03/13 01:46:50;;;;;;;6.20;1.83;;;;;;;;;;5096582;28;20195;-77
2023/03/13 01:49:22;;;;;;;5.55;1.85;;;;;;;;;;5097415;28;20183;-77
2023/03/13 01:51:50;;;;;;;12.33;2.60;;;;;;;;;;5096963;28;20625;-77
2023/03/13 01:54:30;;;;;;;10.48;2.80;;;;;;;;;;5096937;28;20438;-77
2023/03/13 01:57:02;;;;;;;8.50;2.35;;;;;;;;;;5096908;28;20180;-76
2023/03/13 01:59:32;;;;;;;8.02;1.80;;;;;;;;;;5097306;28;20183;-76
2023/03/13 02:01:59;;;;;;;6.38;1.90;;;;;;;;;;5096617;28;20218;-77
2023/03/13 02:04:27;;;;;;;7.53;1.65;;;;;;;;;;5096676;28;20564;-77
2023/03/13 02:06:57;;;;;;;4.72;1.55;;;;;;;;;;5078276;28;20212;-77
2023/03/13 02:09:25;;;;;;;5.13;1.30;;;;;;;;;;5096570;28;20176;-77
2023/03/13 02:12:00;;;;;;;3.70;1.73;;;;;;;;;;5096370;28;20160;-77
2023/03/13 02:14:27;;;;;;;6.70;1.88;;;;;;;;;;5096847;28;20168;-77
2023/03/13 02:16:54;;;;;;;4.18;1.50;;;;;;;;;;5096165;28;20168;-77
2023/03/13 02:19:47;;;;;;;2.42;1.35;;;;;;;;;;5096736;28;20643;-77
2023/03/13 02:22:22;;;;;;;3.88;1.60;;;;;;;;;;5092436;28;20584;-76
2023/03/13 02:24:53;;;;;;;5.70;1.40;;;;;;;;;;5096223;28;20235;-77
2023/03/13 02:27:19;;;;;;;8.45;2.17;;;;;;;;;;5096291;28;20251;-76
2023/03/13 02:29:45;;;;;;;3.90;1.40;;;;;;;;;;5096152;28;20211;-81
2023/03/13 02:32:11;;;;;;;4.45;1.17;;;;;;;;;;5096266;28;20183;-76
2023/03/13 02:34:38;;;;;;;3.80;1.40;;;;;;;;;;5096882;28;20539;-76
2023/03/13 02:37:06;;;;;;;4.63;1.10;;;;;;;;;;5097847;28;20176;-77
2023/03/13 02:39:32;;;;;;;2.85;1.38;;;;;;;;;;5101206;28;20214;-77
2023/03/13 02:41:59;;;;;;;3.28;1.20;;;;;;;;;;5100527;28;20172;-77
2023/03/13 02:44:25;;;;;;;2.97;1.08;;;;;;;;;;5100809;28;20180;-77
2023/03/13 02:46:52;;;;;;;6.00;1.00;;;;;;;;;;5100521;28;20215;-77
2023/03/13 02:49:25;;;;;;;2.47;1.15;;;;;;;;;;5100815;28;20183;-77
2023/03/13 02:51:52;;;;;;;3.75;1.00;;;;;;;;;;5100552;28;20514;-77
2023/03/13 02:54:20;;;;;;;2.22;1.05;;;;;;;;;;5101033;28;20535;-77
2023/03/13 02:56:50;;;;;;;2.40;0.93;;;;;;;;;;5100458;28;20176;-77
2023/03/13 02:59:16;;;;;;;1.92;1.05;;;;;;;;;;5100833;28;20175;-77
2023/03/13 03:01:42;;;;;;;5.50;1.30;;;;;;;;;;5100348;28;20218;-77
2023/03/13 03:04:08;;;;;;;1.75;0.70;;;;;;;;;;5099838;28;20227;-77
2023/03/13 03:06:34;;;;;;;2.08;1.10;;;;;;;;;;5100566;28;20261;-77
2023/03/13 03:09:01;;;;;;;2.05;1.13;;;;;;;;;;5100004;28;20535;-76
2023/03/13 03:11:27;;;;;;;1.15;0.85;;;;;;;;;;5100403;28;20177;-77
2023/03/13 03:13:53;;;;;;;2.58;0.80;;;;;;;;;;5099649;28;20187;-76
2023/03/13 03:16:19;;;;;;;2.05;0.80;;;;;;;;;;5099673;28;20168;-77
2023/03/13 03:18:45;;;;;;;1.30;0.90;;;;;;;;;;5100241;28;20650;-77
2023/03/13 03:21:12;;;;;;;1.00;0.70;;;;;;;;;;5099211;28;20270;-77
2023/03/13 03:23:38;;;;;;;1.42;0.60;;;;;;;;;;5100081;28;20581;-78
2023/03/13 03:26:05;;;;;;;0.77;0.60;;;;;;;;;;5081665;28;20572;-77
2023/03/13 03:28:31;;;;;;;0.80;0.70;;;;;;;;;;5099900;28;20204;-77
2023/03/13 03:30:57;;;;;;;2.38;0.70;;;;;;;;;;5100116;28;20215;-77
2023/03/13 03:33:24;;;;;;;1.13;0.67;;;;;;;;;;5099694;28;20176;-77
2023/03/13 03:35:50;;;;;;;1.60;0.68;;;;;;;;;;5099605;28;20997;-80
2023/03/13 03:38:17;;;;;;;2.05;0.70;;;;;;;;;;5099194;28;20183;-77
2023/03/13 03:40:43;;;;;;;2.00;0.70;;;;;;;;;;5099880;28;20499;-77
2023/03/13 03:43:09;;;;;;;0.88;0.65;;;;;;;;;;5099485;28;20176;-76
2023/03/13 03:45:35;;;;;;;1.63;0.70;;;;;;;;;;5099647;28;20198;-77
2023/03/13 03:48:01;;;;;;;2.50;0.85;;;;;;;;;;5097971;28;20203;-77
2023/03/13 03:50:27;;;;;;;1.25;0.80;;;;;;;;;;5099033;28;20756;-77
2023/03/13 03:52:53;;;;;;;2.75;0.90;;;;;;;;;;5099344;28;20205;-77
2023/03/13 03:55:19;;;;;;;1.88;0.90;;;;;;;;;;5099247;28;20169;-77
2023/03/13 03:57:45;;;;;;;2.40;0.68;;;;;;;;;;5099181;28;20275;-77
2023/03/13 04:00:14;;;;;;;0.75;0.60;;;;;;;;;;5098740;28;20195;-77
2023/03/13 04:02:40;;;;;;;0.82;0.70;;;;;;;;;;5081342;28;20173;-77
2023/03/13 04:05:06;;;;;;;1.30;0.70;;;;;;;;;;5098338;28;20258;-76
2023/03/13 04:07:32;;;;;;;1.13;0.70;;;;;;;;;;5099064;28;20207;-77
2023/03/13 04:09:59;;;;;;;1.58;0.60;;;;;;;;;;5098600;28;20406;-77
2023/03/13 04:12:25;;;;;;;1.45;0.65;;;;;;;;;;5099509;28;20164;-77
2023/03/13 04:14:51;;;;;;;1.33;0.80;;;;;;;;;;5098815;28;20571;-77
2023/03/13 04:17:17;;;;;;;1.03;0.80;;;;;;;;;;5099217;28;20179;-77
2023/03/13 04:19:43;;;;;;;1.13;0.60;;;;;;;;;;5098837;28;20407;-76
2023/03/13 04:22:09;;;;;;;1.00;0.70;;;;;;;;;;5098034;28;20256;-77
2023/03/13 04:24:35;;;;;;;0.80;0.70;;;;;;;;;;5099157;28;20198;-77
2023/03/13 04:27:02;;;;;;;1.65;0.90;;;;;;;;;;5080377;28;20215;-77
2023/03/13 04:29:28;;;;;;;1.25;0.75;;;;;;;;;;5098275;28;20176;-77
2023/03/13 04:31:55;;;;;;;1.20;0.80;;;;;;;;;;5098008;28;20183;-77
2023/03/13 04:34:21;;;;;;;0.90;0.80;;;;;;;;;;5098530;28;20608;-77
2023/03/13 04:36:47;;;;;;;1.13;0.70;;;;;;;;;;5098528;28;20184;-77
2023/03/13 04:39:13;;;;;;;2.50;0.90;;;;;;;;;;5098372;28;20245;-77
2023/03/13 04:41:39;;;;;;;0.80;0.70;;;;;;;;;;5080327;28;20983;-76
2023/03/13 04:44:05;;;;;;;2.10;0.70;;;;;;;;;;5079428;28;20449;-76
2023/03/13 04:46:31;;;;;;;1.90;0.90;;;;;;;;;;5098182;28;20176;-77
2023/03/13 04:48:57;;;;;;;0.70;0.60;;;;;;;;;;5097907;28;20206;-76
2023/03/13 04:51:24;;;;;;;0.60;0.57;;;;;;;;;;5097811;28;20207;-77
2023/03/13 04:53:50;;;;;;;1.50;0.70;;;;;;;;;;5098103;28;20180;-77
2023/03/13 04:56:23;;;;;;;1.00;0.60;;;;;;;;;;5080043;28;20168;-77
2023/03/13 04:58:49;;;;;;;0.95;0.70;;;;;;;;;;5098190;28;20164;-77
2023/03/13 05:01:15;;;;;;;1.20;0.68;;;;;;;;;;5097382;28;20237;-77
2023/03/13 05:03:41;;;;;;;2.75;0.70;;;;;;;;;;5079989;28;20176;-77
2023/03/13 05:06:07;;;;;;;0.73;0.60;;;;;;;;;;5097852;28;20176;-77
2023/03/13 05:08:35;;;;;;;0.60;0.60;;;;;;;;;;5098271;28;20238;-77
2023/03/13 05:11:01;;;;;;;1.60;0.60;;;;;;;;;;5097785;28;20177;-77
2023/03/13 05:13:27;;;;;;;3.28;0.80;;;;;;;;;;5097804;28;20210;-77
2023/03/13 05:15:53;;;;;;;1.80;0.70;;;;;;;;;;5097551;28;20180;-77
2023/03/13 05:18:19;;;;;;;1.30;0.75;;;;;;;;;;5097292;28;20183;-77
2023/03/13 05:20:45;;;;;;;1.30;0.70;;;;;;;;;;5097873;28;20199;-76
2023/03/13 05:23:11;;;;;;;2.20;0.80;;;;;;;;;;5097090;28;20640;-76
2023/03/13 05:25:37;;;;;;;0.75;0.75;;;;;;;;;;5097930;28;20176;-76
2023/03/13 05:28:03;;;;;;;0.90;0.70;;;;;;;;;;5097302;28;20249;-77
2023/03/13 05:30:29;;;;;;;1.42;0.85;;;;;;;;;;5096777;28;20255;-77
2023/03/13 05:32:55;;;;;;;1.63;0.80;;;;;;;;;;5097207;28;20180;-77
2023/03/13 05:35:21;;;;;;;1.35;0.93;;;;;;;;;;5097753;28;20433;-77
2023/03/13 05:37:47;;;;;;;1.25;0.80;;;;;;;;;;5097664;28;20190;-77
2023/03/13 05:40:14;;;;;;;1.02;0.80;;;;;;;;;;5097824;28;20255;-77
2023/03/13 05:42:40;;;;;;;1.92;0.80;;;;;;;;;;5096803;28;20165;-77
2023/03/13 05:45:08;;;;;;;0.80;0.80;;;;;;;;;;5096628;28;20675;-77
2023/03/13 05:47:34;;;;;;;2.90;0.80;;;;;;;;;;5097041;28;20191;-77
2023/03/13 05:50:00;;;;;;;1.88;0.70;;;;;;;;;;5097417;28;20180;-77
2023/03/13 05:52:26;;;;;;;1.00;0.80;;;;;;;;;;5097215;28;20185;-77
2023/03/13 05:54:52;;;;;;;0.93;0.82;;;;;;;;;;5096545;28;20305;-77
2023/03/13 05:57:18;;;;;;;4.50;0.85;;;;;;;;;;5096623;28;20666;-77
2023/03/13 05:59:44;;;;;;;1.47;0.80;;;;;;;;;;5096361;28;20175;-77
2023/03/13 06:02:10;;;;;;;1.15;1.05;;;;;;;;;;5095919;28;20442;-74
2023/03/13 06:04:36;;;;;;;0.80;0.73;;;;;;;;;;5096678;28;20296;-77
2023/03/13 06:07:02;;;;;;;0.90;0.80;;;;;;;;;;5096213;28;20457;-77
2023/03/13 06:09:28;;;;;;;2.00;0.88;;;;;;;;;;5096994;28;20769;-77
2023/03/13 06:11:54;;;;;;;1.50;1.02;;;;;;;;;;5095900;28;20180;-77
2023/03/13 06:14:20;;;;;;;1.00;0.80;;;;;;;;;;5095942;28;20187;-76
2023/03/13 06:16:46;;;;;;;2.20;0.90;;;;;;;;;;5096709;28;20406;-77
2023/03/13 06:19:12;;;;;;;2.40;0.90;;;;;;;;;;5096172;28;20413;-77
2023/03/13 06:21:38;;;;;;;1.00;0.90;;;;;;;;;;5096105;28;20409;-77
2023/03/13 06:24:05;;;;;;;1.00;0.73;;;;;;;;;;5096565;28;20421;-77
2023/03/13 06:26:31;;;;;;;1.37;0.87;;;;;;;;;;5096085;28;20180;-77
2023/03/13 06:28:57;;;;;;;1.47;1.00;;;;;;;;;;5095926;28;20418;-78
2023/03/13 06:31:23;;;;;;;3.07;1.33;;;;;;;;;;5077407;28;20761;-77
2023/03/13 06:33:52;;;;;;;2.25;0.90;;;;;;;;;;5096117;28;20415;-77
2023/03/13 06:36:18;;;;;;;1.73;0.80;;;;;;;;;;5095082;28;20172;-77
2023/03/13 06:38:44;;;;;;;1.93;1.10;;;;;;;;;;5096454;28;20413;-77
2023/03/13 06:41:10;;;;;;;2.20;1.20;;;;;;;;;;5095383;28;20455;-77
2023/03/13 06:43:39;;;;;;;1.80;1.10;;;;;;;;;;5095806;28;21021;-77
2023/03/13 06:46:05;;;;;;;2.37;1.60;;;;;;;;;;5078136;28;20813;-77
2023/03/13 06:48:32;;;;;;;3.10;1.30;;;;;;;;;;5095967;28;20453;-77
2023/03/13 06:50:58;;;;;;;2.63;1.37;;;;;;;;;;5095889;28;20547;-77
2023/03/13 06:53:24;;;;;;;2.10;1.50;;;;;;;;;;5095829;28;20398;-76
2023/03/13 06:55:50;;;;;;;2.30;1.40;;;;;;;;;;5096285;28;20398;-77
2023/03/13 06:58:16;;;;;;;1.70;1.60;;;;;;;;;;5076999;28;20780;-77
2023/03/13 07:00:43;;;;;;;3.93;1.87;;;;;;;;;;5096497;28;20395;-76
2023/03/13 07:03:09;;;;;;;3.00;1.50;;;;;;;;;;5095787;28;20898;-77
2023/03/13 07:05:35;;;;;;;1.97;1.77;;;;;;;;;;5095579;28;20469;-77
2023/03/13 07:08:01;;;;;;;6.80;1.67;;;;;;;;;;5095666;28;20518;-76
2023/03/13 07:10:27;;;;;;;3.00;1.67;;;;;;;;;;5095647;28;20740;-77
2023/03/13 07:12:53;;;;;;;4.80;1.63;;;;;;;;;;5095871;28;20470;-77
2023/03/13 07:15:19;;;;;;;5.17;1.97;;;;;;;;;;5095399;28;20485;-77
2023/03/13 07:17:45;;;;;;;2.43;1.57;;;;;;;;;;5095687;28;20402;-76
2023/03/13 07:20:11;;;;;;;1.70;1.50;;;;;;;;;;5095191;28;20409;-77
2023/03/13 07:22:37;;;;;;;2.77;1.67;;;;;;;;;;5096058;28;20385;-77
2023/03/13 07:25:04;;;;;;;5.83;1.90;;;;;;;;;;5099310;28;20402;-78
2023/03/13 07:27:30;;;;;;;2.77;1.87;;;;;;;;;;5099069;28;20460;-77
2023/03/13 07:29:56;;;;;;;2.77;1.70;;;;;;;;;;5081686;28;20455;-77
2023/03/13 07:32:23;;;;;;;4.30;1.50;;;;;;;;;;5098553;28;20406;-77
2023/03/13 07:34:49;;;;;;;3.03;1.87;;;;;;;;;;5098997;28;20433;-77
2023/03/13 07:37:15;;;;;;;2.23;1.27;;;;;;;;;;5099023;28;20765;-77
2023/03/13 07:39:42;;;;;;;4.20;1.97;;;;;;;;;;5099087;28;20401;-77
2023/03/13 07:42:11;;;;;;;3.77;1.80;;;;;;;;;;5098712;28;20409;-77
2023/03/13 07:44:38;;;;;;;2.50;1.50;;;;;;;;;;5099367;28;20402;-76
2023/03/13 07:47:04;;;;;;;2.10;1.60;;;;;;;;;;5098896;28;20533;-77
2023/03/13 07:49:30;;;;;;;1.97;1.50;;;;;;;;;;5099303;28;20403;-77
2023/03/13 07:51:56;;;;;;;2.43;1.60;;;;;;;;;;5099048;28;20785;-77
2023/03/13 07:54:23;;;;;;;2.60;1.57;;;;;;;;;;5098970;28;20407;-77
2023/03/13 07:56:49;;;;;;;7.43;2.20;;;;;;;;;;5098937;28;20456;-77
2023/03/13 07:59:15;;;;;;;4.00;1.80;;;;;;;;;;5097893;28;20416;-77
2023/03/13 08:01:41;;;;;;;5.63;2.10;;;;;;;;;;5098531;28;20417;-76
2023/03/13 08:04:09;;;;;;;3.57;1.80;;;;;;;;;;5097459;28;20811;-77
2023/03/13 08:06:35;;;;;;;6.30;2.30;;;;;;;;;;5098007;28;20386;-76
2023/03/13 08:09:01;;;;;;;4.10;1.43;;;;;;;;;;5097692;28;20402;-76
2023/03/13 08:11:28;;;;;;;4.53;2.03;;;;;;;;;;5097155;28;20401;-77
2023/03/13 08:13:55;;;;;;;3.47;1.90;;;;;;;;;;5097647;28;20414;-77
2023/03/13 08:16:25;;;;;;;4.40;1.70;;;;;;;;;;5097348;28;20468;-77
2023/03/13 08:18:52;;;;;;;5.37;2.50;;;;;;;;;;5097359;28;20402;-77
2023/03/13 08:21:20;;;;;;;2.00;1.70;;;;;;;;;;5097212;28;20394;-77
2023/03/13 08:23:46;;;;;;;6.37;2.60;;;;;;;;;;5097497;28;20422;-77
2023/03/13 08:26:13;;;;;;;4.53;2.33;;;;;;;;;;5097477;28;20752;-77
2023/03/13 08:28:40;;;;;;;5.63;1.93;;;;;;;;;;5096994;28;20470;-76
2023/03/13 08:31:07;;;;;;;4.43;2.10;;;;;;;;;;5096899;28;20406;-77
2023/03/13 08:33:33;;;;;;;4.00;2.10;;;;;;;;;;5096878;28;20490;-77
2023/03/13 08:35:59;;;;;;;13.37;3.03;;;;;;;;;;5096844;28;20440;-76
2023/03/13 08:38:25;;;;;;;3.93;2.03;;;;;;;;;;5096999;28;20493;-77
2023/03/13 08:40:56;;;;;;;3.70;2.30;;;;;;;;;;5096831;28;20800;-76
2023/03/13 08:43:22;;;;;;;3.10;1.53;;;;;;;;;;5096606;28;20394;-77
2023/03/13 08:45:53;;;;;;;3.47;2.00;;;;;;;;;;5097112;28;20410;-77
2023/03/13 08:48:19;;;;;;;3.63;2.20;;;;;;;;;;5096606;28;20461;-77
2023/03/13 08:50:45;;;;;;;4.63;1.87;;;;;;;;;;5097153;28;20406;-77
2023/03/13 08:53:11;;;;;;;2.07;1.63;;;;;;;;;;5096234;28;20426;-77
2023/03/13 08:55:37;;;;;;;5.60;2.10;;;;;;;;;;5096992;28;20846;-76
2023/03/13 08:58:03;;;;;;;5.63;1.80;;;;;;;;;;5096909;28;20410;-77
2023/03/13 09:00:29;;;;;;;3.53;1.93;;;;;;;;;;5096314;28;20922;-77
2023/03/13 09:02:57;;;;;;;4.93;2.07;;;;;;;;;;5096388;28;20413;-77
2023/03/13 09:05:23;;;;;;;4.20;2.53;;;;;;;;;;5096460;28;20462;-77
2023/03/13 09:07:49;;;;;;;2.60;2.00;;;;;;;;;;5096419;28;20510;-77
2023/03/13 09:10:15;;;;;;;2.73;1.70;;;;;;;;;;5096132;28;20466;-77
2023/03/13 09:12:41;;;;;;;2.57;1.60;;;;;;;;;;5096546;28;20408;-77
2023/03/13 09:15:07;;;;;;;3.20;1.60;;;;;;;;;;5096282;28;20404;-77
2023/03/13 09:17:34;;;;;;;3.90;1.57;;;;;;;;;;5095867;28;20436;-77
2023/03/13 09:19:59;;;;;;;2.63;1.90;;;;;;;;;;5096126;28;20391;-77
2023/03/13 09:22:25;;;;;;;4.90;1.90;;;;;;;;;;5096069;28;20398;-77
2023/03/13 09:24:51;;;;;;;2.60;1.63;;;;;;;;;;5078190;28;20890;-77
2023/03/13 09:27:17;;;;;;;2.47;1.30;;;;;;;;;;5095997;28;20462;-77
2023/03/13 09:29:43;;;;;;;2.10;1.60;;;;;;;;;;5096008;28;20475;-77
2023/03/13 09:32:10;;;;;;;1.77;1.30;;;;;;;;;;5096022;28;20402;-77
2023/03/13 09:34:36;;;;;;;2.93;1.63;;;;;;;;;;5095569;28;20799;-77
2023/03/13 09:37:02;;;;;;;2.37;1.47;;;;;;;;;;5096108;28;20402;-76
2023/03/13 09:39:28;;;;;;;3.40;1.60;;;;;;;;;;5077601;28;20851;-77
2023/03/13 09:42:00;;;;;;;3.90;1.63;;;;;;;;;;5095987;28;20442;-77
2023/03/13 09:44:27;;;;;;;1.93;1.20;;;;;;;;;;5095566;28;20414;-77
2023/03/13 09:46:53;;;;;;;1.50;1.10;;;;;;;;;;5094882;28;20460;-77
2023/03/13 09:49:25;;;;;;;2.90;1.60;;;;;;;;;;5095210;28;20410;-76
2023/03/13 09:51:54;;;;;;;1.97;1.30;;;;;;;;;;5077194;28;20418;-76
2023/03/13 09:54:25;;;;;;;2.43;1.30;;;;;;;;;;5095454;28;20406;-76
2023/03/13 09:56:54;;;;;;;1.37;1.07;;;;;;;;;;5095404;28;20410;-77
2023/03/13 09:59:36;;;;;;;1.27;1.17;;;;;;;;;;5095062;28;20497;-76
2023/03/13 10:02:03;;;;;;;2.73;1.57;;;;;;;;;;5095553;28;20390;-77
2023/03/13 10:04:42;;;;;;;1.40;1.30;;;;;;;;;;5095104;28;20857;-77
2023/03/13 10:07:11;;;;;;;1.60;1.20;;;;;;;;;;5095134;28;20450;-76
2023/03/13 10:09:39;;;;;;;1.60;1.43;;;;;;;;;;5094690;28;20403;-77
2023/03/13 10:12:05;;;;;;;2.13;1.30;;;;;;;;;;5094766;28;20399;-77
2023/03/13 10:14:50;;;;;;;1.70;1.30;;;;;;;;;;5095119;28;20755;-77
2023/03/13 10:17:28;;;;;;;2.33;1.47;;;;;;;;;;5094604;28;20406;-77
2023/03/13 10:19:57;;;;;;;1.67;1.03;;;;;;;;;;5094782;28;20412;-77
2023/03/13 10:22:25;;;;;;;2.20;1.10;;;;;;;;;;5094464;28;20399;-76
2023/03/13 10:24:57;;;;;;;2.30;1.33;;;;;;;;;;5094765;28;20391;-77
2023/03/13 10:27:23;;;;;;;1.10;0.90;;;;;;;;;;5094227;28;20461;-76
2023/03/13 10:29:49;;;;;;;1.37;0.90;;;;;;;;;;5094546;28;20402;-76
2023/03/13 10:32:15;;;;;;;1.73;1.00;;;;;;;;;;5076232;28;20385;-79
2023/03/13 10:34:53;;;;;;;2.00;0.87;;;;;;;;;;5094835;28;20426;-76
2023/03/13 10:37:22;;;;;;;1.43;1.10;;;;;;;;;;5094533;28;20399;-76
2023/03/13 10:39:47;;;;;;;1.10;1.00;;;;;;;;;;5094477;28;20836;-76
2023/03/13 10:42:20;;;;;;;1.07;0.90;;;;;;;;;;5094711;28;20444;-77
2023/03/13 10:44:46;;;;;;;2.63;1.00;;;;;;;;;;5095005;28;20406;-77
2023/03/13 10:47:13;;;;;;;1.30;0.90;;;;;;;;;;5094453;28;20544;-77
2023/03/13 10:49:47;;;;;;;2.23;1.00;;;;;;;;;;5093812;28;20388;-76
2023/03/13 10:52:27;;;;;;;1.80;1.03;;;;;;;;;;5094913;28;20402;-77
2023/03/13 10:54:58;;;;;;;0.90;0.73;;;;;;;;;;5094893;28;20406;-77
2023/03/13 10:57:24;;;;;;;2.73;1.23;;;;;;;;;;5094975;28;20390;-76
2023/03/13 10:59:51;;;;;;;1.53;1.10;;;;;;;;;;5098444;28;20410;-77
2023/03/13 11:02:22;;;;;;;0.90;0.70;;;;;;;;;;5098638;28;20474;-77
2023/03/13 11:04:52;;;;;;;7.93;1.90;;;;;;;;;;5098633;28;20472;-77
2023/03/13 11:07:26;;;;;;;0.90;0.70;;;;;;;;;;5097591;28;20765;-77
2023/03/13 11:09:57;;;;;;;0.83;0.70;;;;;;;;;;5097780;28;20388;-77
2023/03/13 11:12:23;;;;;;;1.20;0.80;;;;;;;;;;5097635;28;20401;-77
2023/03/13 11:14:55;;;;;;;1.00;0.87;;;;;;;;;;5097933;28;20773;-75
2023/03/13 11:17:37;;;;;;;1.53;1.00;;;;;;;;;;5097919;28;20398;-77
2023/03/13 11:20:22;;;;;;;0.83;0.80;;;;;;;;;;5098260;28;20398;-77
2023/03/13 11:23:00;;;;;;;1.10;0.70;;;;;;;;;;5097744;28;20408;-77
2023/03/13 11:25:29;;;;;;;1.00;0.90;;;;;;;;;;5097422;28;20417;-76
2023/03/13 11:28:13;;;;;;;0.73;0.60;;;;;;;;;;5097751;28;20518;-77
2023/03/13 11:30:39;;;;;;;0.90;0.70;;;;;;;;;;5097255;28;20467;-77
2023/03/13 11:33:12;;;;;;;1.63;0.90;;;;;;;;;;5097843;28;20402;-77
2023/03/13 11:35:46;;;;;;;0.70;0.70;;;;;;;;;;5097700;28;20422;-77
2023/03/13 11:38:32;;;;;;;0.90;0.80;;;;;;;;;;5097272;28;20406;-76
2023/03/13 11:41:10;;;;;;;0.73;0.60;;;;;;;;;;5097702;28;20868;-77
2023/03/13 11:43:50;;;;;;;0.70;0.60;;;;;;;;;;5097012;28;20481;-77
2023/03/13 11:46:34;;;;;;;0.60;0.50;;;;;;;;;;5097319;28;20402;-76
2023/03/13 11:49:06;;;;;;;0.70;0.60;;;;;;;;;;5097247;28;20758;-76
2023/03/13 11:51:32;;;;;;;1.30;0.87;;;;;;;;;;5096865;28;20461;-76
2023/03/13 11:54:22;;;;;;;0.80;0.70;;;;;;;;;;5097514;28;20389;-77
2023/03/13 11:56:54;;;;;;;0.70;0.70;;;;;;;;;;5096511;28;20910;-77
2023/03/13 11:59:39;;;;;;;1.47;0.57;;;;;;;;;;5096796;28;20738;-77
2023/03/13 12:02:24;;;;;;;0.60;0.50;;;;;;;;;;5097303;28;20912;-76
2023/03/13 12:05:06;;;;;;;1.17;0.87;;;;;;;;;;5097269;28;21010;-77
2023/03/13 12:07:34;;;;;;;1.33;0.80;;;;;;;;;;5097047;28;20434;-76
2023/03/13 12:10:01;;;;;;;2.07;0.60;;;;;;;;;;5095981;28;20946;-77
2023/03/13 12:12:33;;;;;;;0.80;0.70;;;;;;;;;;5097002;28;20437;-76
2023/03/13 12:15:08;;;;;;;1.20;0.90;;;;;;;;;;5096822;28;20493;-77
2023/03/13 12:17:35;;;;;;;2.03;1.13;;;;;;;;;;5096832;28;20396;-77
2023/03/13 12:20:08;;;;;;;1.00;0.70;;;;;;;;;;5097096;28;20414;-76
2023/03/13 12:22:40;;;;;;;2.23;0.73;;;;;;;;;;5062258;28;20774;-77
2023/03/13 12:25:11;;;;;;;0.80;0.60;;;;;;;;;;5096817;28;20449;-76
2023/03/13 12:27:42;;;;;;;1.00;0.53;;;;;;;;;;5096262;28;20435;-76
2023/03/13 12:30:14;;;;;;;1.30;0.80;;;;;;;;;;5096030;28;20406;-77
2023/03/13 12:32:49;;;;;;;0.90;0.80;;;;;;;;;;5096076;28;20398;-77
2023/03/13 12:35:19;;;;;;;1.10;0.70;;;;;;;;;;5096385;28;20455;-77
2023/03/13 12:38:04;;;;;;;1.23;0.80;;;;;;;;;;5096569;28;20845;-78
2023/03/13 12:40:38;;;;;;;0.80;0.70;;;;;;;;;;5096355;28;20369;-76
2023/03/13 12:43:07;;;;;;;0.80;0.70;;;;;;;;;;5096649;28;20773;-77
2023/03/13 12:45:36;;;;;;;1.00;0.60;;;;;;;;;;5095835;28;20407;-77
2023/03/13 12:48:20;;;;;;;0.90;0.87;;;;;;;;;;5096169;28;20460;-77
2023/03/13 12:51:04;;;;;;;0.70;0.60;;;;;;;;;;5096109;28;20767;-77
2023/03/13 12:53:39;;;;;;;1.10;0.80;;;;;;;;;;5095685;28;20890;-77
2023/03/13 12:56:08;;;;;;;1.33;1.00;;;;;;;;;;5095875;28;20819;-77
2023/03/13 12:58:40;;;;;;;1.40;0.80;;;;;;;;;;5095331;28;20385;-77
2023/03/13 13:01:07;;;;;;;1.00;0.70;;;;;;;;;;5077711;28;20425;-77
2023/03/13 13:03:36;;;;;;;1.77;0.73;;;;;;;;;;5095287;28;20405;-77
2023/03/13 13:06:07;;;;;;;1.57;0.70;;;;;;;;;;5095350;28;20458;-76
2023/03/13 13:08:36;;;;;;;1.30;0.90;;;;;;;;;;5095120;28;20461;-77
2023/03/13 13:11:20;;;;;;;1.53;0.97;;;;;;;;;;5095751;28;20406;-78
2023/03/13 13:13:46;;;;;;;0.90;0.70;;;;;;;;;;5095354;28;20778;-76
2023/03/13 13:16:17;;;;;;;0.80;0.60;;;;;;;;;;5095451;28;20398;-76
2023/03/13 13:18:43;;;;;;;1.37;0.70;;;;;;;;;;5095357;28;20464;-77
2023/03/13 13:21:15;;;;;;;1.30;0.90;;;;;;;;;;5077225;28;20430;-77
2023/03/13 13:23:45;;;;;;;2.67;0.90;;;;;;;;;;5094812;28;20506;-76
2023/03/13 13:26:29;;;;;;;1.47;0.80;;;;;;;;;;5095746;28;20405;-76
2023/03/13 13:29:01;;;;;;;1.00;0.67;;;;;;;;;;5095947;28;20456;-76
2023/03/13 13:31:45;;;;;;;1.47;0.90;;;;;;;;;;5095088;28;20460;-76
2023/03/13 13:34:30;;;;;;;1.10;0.80;;;;;;;;;;5095754;28;20380;-77
2023/03/13 13:36:56;;;;;;;0.90;0.77;;;;;;;;;;5095533;28;20419;-75
2023/03/13 13:39:46;;;;;;;0.80;0.70;;;;;;;;;;5095672;28;20402;-77
2023/03/13 13:42:31;;;;;;;1.37;1.27;;;;;;;;;;5095763;28;20436;-77
2023/03/13 13:44:58;;;;;;;1.20;1.10;;;;;;;;;;5095409;28;20451;-76
2023/03/13 13:47:26;;;;;;;2.80;0.80;;;;;;;;;;5095657;28;20478;-77
2023/03/13 13:49:53;;;;;;;2.50;1.20;;;;;;;;;;5095626;28;20426;-77
2023/03/13 13:52:30;;;;;;;1.17;0.77;;;;;;;;;;5095599;28;20403;-76
2023/03/13 13:54:57;;;;;;;1.63;1.00;;;;;;;;;;5095175;28;20406;-77
2023/03/13 13:57:25;;;;;;;0.90;0.70;;;;;;;;;;5077148;28;20410;-77
2023/03/13 13:59:54;;;;;;;1.20;0.80;;;;;;;;;;5095743;28;20531;-76
2023/03/13 14:02:24;;;;;;;0.80;0.80;;;;;;;;;;5095230;28;20394;-76
2023/03/13 14:05:15;;;;;;;2.00;0.80;;;;;;;;;;5094721;28;20473;-76
2023/03/13 14:07:41;;;;;;;1.40;0.90;;;;;;;;;;5095030;28;20986;-77
2023/03/13 14:10:15;;;;;;;2.40;0.90;;;;;;;;;;5095181;28;20407;-77
2023/03/13 14:12:45;;;;;;;1.03;0.80;;;;;;;;;;5077061;28;20392;-77
2023/03/13 14:15:16;;;;;;;1.00;0.70;;;;;;;;;;5095577;28;20413;-76
2023/03/13 14:17:59;;;;;;;0.90;0.77;;;;;;;;;;5094805;28;20406;-78
2023/03/13 14:20:29;;;;;;;0.80;0.80;;;;;;;;;;5095315;28;20711;-77
2023/03/13 14:22:56;;;;;;;1.37;0.80;;;;;;;;;;5094898;28;20369;-77
2023/03/13 14:25:23;;;;;;;2.03;0.97;;;;;;;;;;5095412;28;20920;-76
2023/03/13 14:27:50;;;;;;;1.63;0.80;;;;;;;;;;5094534;28;20446;-76
2023/03/13 14:30:18;;;;;;;0.90;0.70;;;;;;;;;;5095399;28;20381;-76
2023/03/13 14:32:44;;;;;;;1.57;0.90;;;;;;;;;;5076265;28;20413;-76
2023/03/13 14:35:13;;;;;;;1.30;0.70;;;;;;;;;;5094995;28;20395;-77
2023/03/13 14:37:46;;;;;;;1.33;0.90;;;;;;;;;;5094649;28;20377;-76
2023/03/13 14:40:19;;;;;;;0.80;0.60;;;;;;;;;;5077265;28;20401;-77
2023/03/13 14:42:47;;;;;;;1.73;0.80;;;;;;;;;;5094418;28;20361;-77
2023/03/13 14:45:14;;;;;;;1.53;0.60;;;;;;;;;;5094802;28;20755;-76
2023/03/13 14:47:40;;;;;;;0.80;0.60;;;;;;;;;;5094438;28;20492;-77
2023/03/13 14:50:11;;;;;;;1.20;0.60;;;;;;;;;;5094859;28;20410;-77
2023/03/13 14:52:40;;;;;;;0.90;0.60;;;;;;;;;;5094636;28;20414;-76